X  Sluiten METAR luchtvaart weer gegevens      EHRD Rotterdam The Hague Airport
Temperatuur
7°C Temperatuur
5°C Dauwpunt
87% Vochtigheid



Wind
26 KM/U
16 MPH
7 M/S
14 KTS



340°
NNW
Huidig weer

Wat bewolking Wat bewolking
Luchtdruk 1038.91 (hPa) - 30.68 (inHg)
Zicht 6.2 (mijl) - 10 (km)
Vliegveld
Vliegveld code EHRD

Locatie : Rotterdam The Hague Airport
Afstand: 20 (km)

Metar:
EHRD 050725Z AUTO 34014KT 300V020 9999 FEW017 SCT021 BKN025 07/05 Q1039 NOSIG

Tijd: 05-02-2023 08:25 CET